createdAt,value
2022-11-26T19:59:53.449Z,100925.04
2022-11-26T20:00:59.103Z,100925.04
2022-11-26T20:02:03.120Z,100918.22
2022-11-26T20:03:07.118Z,100920.63
2022-11-26T20:04:14.144Z,100920.63
2022-11-26T20:05:19.699Z,100913.49
2022-11-26T20:06:25.952Z,100920.52
2022-11-26T20:07:29.924Z,100909.80
2022-11-26T20:08:36.096Z,100918.48
2022-11-26T20:09:40.446Z,100917.44
2022-11-26T20:10:49.720Z,100915.64
2022-11-26T20:11:50.836Z,100906.70
2022-11-26T20:12:54.784Z,100917.38
2022-11-26T20:13:58.957Z,100910.15
2022-11-26T20:15:03.079Z,100910.94
2022-11-26T20:16:10.728Z,100912.79
2022-11-26T20:17:14.940Z,100939.23
2022-11-26T20:18:20.529Z,100906.66
2022-11-26T20:19:24.585Z,100904.91
2022-11-26T20:20:29.079Z,100913.64
2022-11-26T20:21:34.369Z,100909.20
2022-11-26T20:22:41.213Z,100909.20
2022-11-26T20:23:48.017Z,100905.50
2022-11-26T20:24:51.954Z,100905.50
2022-11-26T20:25:56.025Z,100909.05
2022-11-26T20:27:00.025Z,100916.98
2022-11-26T20:28:05.016Z,100916.98
2022-11-26T20:29:11.521Z,100916.08
2022-11-26T20:30:15.482Z,100905.50
2022-11-26T20:31:23.614Z,100905.50
2022-11-26T20:32:26.167Z,100911.84
2022-11-26T20:33:30.136Z,100913.58
2022-11-26T20:34:34.136Z,100913.58
2022-11-26T20:35:42.080Z,100917.93
2022-11-26T20:36:46.197Z,100910.94
2022-11-26T20:37:50.177Z,100920.52
2022-11-26T20:39:00.331Z,100915.29
2022-11-26T20:40:04.631Z,100916.14
2022-11-26T20:41:14.496Z,100920.58
2022-11-26T20:42:18.445Z,100914.20
2022-11-26T20:43:25.506Z,100918.72
2022-11-26T20:44:36.907Z,100913.34
2022-11-26T20:45:41.091Z,100912.49
2022-11-26T20:46:45.105Z,100912.49
2022-11-26T20:47:49.641Z,100915.29
2022-11-26T20:48:53.704Z,100915.29
2022-11-26T20:49:58.892Z,100921.37
2022-11-26T20:51:04.697Z,100921.37
2022-11-26T20:52:10.259Z,100916.94
2022-11-26T20:53:14.205Z,100913.34
2022-11-26T20:54:18.278Z,100917.78
2022-11-26T20:55:22.360Z,100917.78
2022-11-26T20:56:26.882Z,100915.14
2022-11-26T20:57:36.843Z,100920.52
2022-11-26T20:58:41.629Z,100920.52
2022-11-26T20:59:46.061Z,100928.36
2022-11-26T21:00:50.073Z,100926.51
2022-11-26T21:01:54.276Z,100930.06
2022-11-26T21:03:05.670Z,100933.50
2022-11-26T21:04:09.600Z,100933.50
2022-11-26T21:05:18.036Z,100935.23
2022-11-26T21:06:29.303Z,100931.80
2022-11-26T21:07:31.692Z,100937.09
2022-11-26T21:08:35.650Z,100927.51
2022-11-26T21:09:41.235Z,100932.70
2022-11-26T21:10:45.801Z,100925.72
2022-11-26T21:11:49.747Z,100927.56
2022-11-26T21:12:55.320Z,100930.95
2022-11-26T21:14:00.194Z,100938.79
2022-11-26T21:15:08.063Z,100938.79
2022-11-26T21:16:21.445Z,100939.64
2022-11-26T21:17:29.716Z,100937.94
2022-11-26T21:18:37.162Z,100942.37
2022-11-26T21:19:41.256Z,100943.28
2022-11-26T21:20:50.997Z,100937.88
2022-11-26T21:21:56.482Z,100944.93
2022-11-26T21:23:00.406Z,100943.17
2022-11-26T21:24:04.493Z,100946.72
2022-11-26T21:26:44.209Z,100938.79
2022-11-26T21:27:55.672Z,100938.79
2022-11-26T21:29:01.603Z,100947.58
2022-11-26T21:30:07.339Z,100947.58
2022-11-26T21:32:27.658Z,100951.10
2022-11-26T21:34:58.820Z,100937.28
2022-11-26T21:36:22.583Z,100949.37
2022-11-26T21:37:28.373Z,100944.02
2022-11-26T21:38:32.294Z,100944.93
2022-11-26T21:39:37.984Z,100940.52
2022-11-26T21:40:42.236Z,100940.52
2022-11-26T21:41:46.161Z,100947.66
2022-11-26T21:42:50.254Z,100940.52
2022-11-26T21:43:55.955Z,100941.38
2022-11-26T21:44:59.889Z,100942.23
2022-11-26T21:46:09.700Z,100947.52
2022-11-26T21:47:16.773Z,100944.08
2022-11-26T21:48:22.370Z,100952.80
2022-11-26T21:49:27.949Z,100948.45
2022-11-26T21:50:32.089Z,100944.93
2022-11-26T21:51:40.713Z,100944.93
2022-11-26T21:52:45.020Z,100951.10
2022-11-26T21:53:50.636Z,100958.04
2022-11-26T21:55:03.611Z,100952.66
2022-11-26T21:56:16.552Z,100957.95
2022-11-26T21:57:20.420Z,100957.04
2022-11-26T21:58:26.476Z,100951.75
2022-11-26T21:59:32.940Z,100950.87
2022-11-26T22:00:37.695Z,100956.24
2022-11-26T22:01:41.833Z,100950.81
2022-11-26T22:02:45.977Z,100956.09
2022-11-26T22:03:52.804Z,100956.24
2022-11-26T22:04:56.942Z,100950.11
2022-11-26T22:06:02.669Z,100950.95
2022-11-26T22:07:08.101Z,100952.66
2022-11-26T22:08:16.492Z,100954.45
2022-11-26T22:09:20.397Z,100954.45
2022-11-26T22:10:24.505Z,100957.95
2022-11-26T22:11:31.402Z,100953.59
2022-11-26T22:12:46.300Z,100955.45
2022-11-26T22:13:48.707Z,100952.86
2022-11-26T22:14:52.732Z,100952.80
2022-11-26T22:15:59.820Z,100952.95
2022-11-26T22:17:04.432Z,100952.95
2022-11-26T22:18:12.728Z,100951.22
2022-11-26T22:19:20.040Z,100950.37
2022-11-26T22:20:24.062Z,100942.37
2022-11-26T22:21:32.137Z,100938.94
2022-11-26T22:22:38.834Z,100941.67
2022-11-26T22:23:42.877Z,100941.67
2022-11-26T22:24:48.551Z,100942.52
2022-11-26T22:25:52.609Z,100937.23
2022-11-26T22:26:59.687Z,100937.23
2022-11-26T22:28:03.732Z,100944.38
2022-11-26T22:29:07.867Z,100950.66
2022-11-26T22:30:12.302Z,100940.94
2022-11-26T22:31:19.232Z,100953.09
2022-11-26T22:32:23.130Z,100946.22
2022-11-26T22:33:27.076Z,100917.08
2022-11-26T22:34:33.968Z,100948.81
2022-11-26T22:35:40.296Z,100948.81
2022-11-26T22:36:47.497Z,100955.80
2022-11-26T22:37:51.590Z,100949.66
2022-11-26T22:39:02.071Z,100959.39
2022-11-26T22:40:03.437Z,100954.89
2022-11-26T22:41:12.130Z,100954.89
2022-11-26T22:42:17.650Z,100956.80
2022-11-26T22:43:21.679Z,100961.09
2022-11-26T22:44:28.889Z,100961.09
2022-11-26T22:45:36.198Z,100958.53
2022-11-26T22:46:40.309Z,100967.38
2022-11-26T22:47:48.526Z,100958.53
2022-11-26T22:48:52.150Z,100964.53
2022-11-26T22:49:55.990Z,100961.80
2022-11-26T22:50:59.934Z,100967.09
2022-11-26T22:52:03.944Z,100956.66
2022-11-26T22:53:07.847Z,100959.30
2022-11-26T22:54:14.766Z,100955.80
2022-11-26T22:55:18.720Z,100963.67
2022-11-26T22:56:23.697Z,100964.53
2022-11-26T22:57:27.657Z,100955.66
2022-11-26T22:58:33.511Z,100958.39
2022-11-26T22:59:37.812Z,100960.95
2022-11-26T23:00:47.838Z,100956.50
2022-11-26T23:01:54.749Z,100955.74
2022-11-26T23:02:58.843Z,100958.30
2022-11-26T23:04:05.797Z,100908.50
2022-11-26T23:05:10.268Z,100956.66
2022-11-26T23:06:15.573Z,100954.80
2022-11-26T23:07:19.710Z,100956.66
2022-11-26T23:08:23.677Z,100952.30
2022-11-26T23:09:27.591Z,100947.87
2022-11-26T23:10:31.690Z,100942.52
2022-11-26T23:11:38.096Z,100954.95
2022-11-26T23:12:43.204Z,100946.08
2022-11-26T23:13:48.412Z,100952.45
2022-11-26T23:14:52.250Z,100938.44
2022-11-26T23:15:58.828Z,100948.87
2022-11-26T23:17:01.830Z,100948.07
2022-11-26T23:18:08.573Z,100954.09
2022-11-26T23:19:16.449Z,100951.66
2022-11-26T23:20:20.481Z,100942.16
2022-11-26T23:21:36.730Z,100945.52
2022-11-26T23:22:41.043Z,100952.51
2022-11-26T23:23:45.713Z,100942.93
2022-11-26T23:24:49.566Z,100949.10
2022-11-26T23:25:53.520Z,100950.02
2022-11-26T23:26:57.511Z,100950.02
2022-11-26T23:28:01.441Z,100954.24
2022-11-26T23:29:10.919Z,100956.95
2022-11-26T23:30:13.665Z,100961.23
2022-11-26T23:31:20.671Z,100957.88
2022-11-26T23:32:28.260Z,100954.30
2022-11-26T23:33:30.970Z,100961.38
2022-11-26T23:34:34.898Z,100955.23
2022-11-26T23:35:38.884Z,100952.51
2022-11-26T23:36:42.939Z,100962.23
2022-11-26T23:37:46.798Z,100952.45
2022-11-26T23:38:50.907Z,100956.89
2022-11-26T23:39:54.835Z,100954.95
2022-11-26T23:41:00.797Z,100978.75
2022-11-26T23:42:04.885Z,100956.80
2022-11-26T23:43:08.926Z,100959.45
2022-11-26T23:44:14.354Z,100959.45
2022-11-26T23:45:18.428Z,100956.80
2022-11-26T23:46:28.003Z,100958.64
2022-11-26T23:47:32.007Z,100959.53
2022-11-26T23:48:36.001Z,100963.88
2022-11-26T23:49:40.228Z,100960.23
2022-11-26T23:50:44.386Z,100963.83
2022-11-26T23:51:48.692Z,100971.67
2022-11-26T23:52:52.586Z,100972.52
2022-11-26T23:53:56.668Z,100972.52
2022-11-26T23:55:00.564Z,100969.23
2022-11-26T23:56:08.263Z,100970.81
2022-11-26T23:57:15.107Z,100965.53
2022-11-26T23:58:19.446Z,100967.23
2022-11-26T23:59:23.359Z,100967.23
